Time;durP1;ratioP1;P1;durP2;ratioP2;P2;SDS_P1;SDS_P2;PMS_P1;PMS_P2;Temp;Humidity;BMP_temperature;BMP_pressure;BME280_temperature;BME280_humidity;BME280_pressure;Samples;Min_cycle;Max_cycle;Signal;HPM_P1;HPM_P2
2022/05/08 00:00:49;;;;;;;22.40;8.55;;;;;;;;;;4824260;29;20034;-61
2022/05/08 00:03:16;;;;;;;15.77;7.18;;;;;;;;;;4824443;29;20066;-61
2022/05/08 00:05:42;;;;;;;17.33;8.02;;;;;;;;;;4824225;29;20034;-61
2022/05/08 00:08:08;;;;;;;16.83;7.45;;;;;;;;;;4823940;29;20065;-61
2022/05/08 00:10:34;;;;;;;15.88;6.80;;;;;;;;;;4807602;29;20451;-61
2022/05/08 00:13:00;;;;;;;15.18;7.07;;;;;;;;;;4824218;29;20042;-61
2022/05/08 00:15:26;;;;;;;15.90;6.07;;;;;;;;;;4824163;29;20059;-61
2022/05/08 00:17:52;;;;;;;16.45;7.70;;;;;;;;;;4824090;29;20056;-61
2022/05/08 00:20:18;;;;;;;22.85;7.97;;;;;;;;;;4824094;29;20051;-61
2022/05/08 00:22:44;;;;;;;16.45;7.43;;;;;;;;;;4807512;29;20031;-61
2022/05/08 00:25:11;;;;;;;23.80;9.38;;;;;;;;;;4824117;29;20491;-61
2022/05/08 00:27:37;;;;;;;19.23;8.45;;;;;;;;;;4823712;29;20031;-61
2022/05/08 00:30:03;;;;;;;18.40;6.05;;;;;;;;;;4823478;29;20038;-61
2022/05/08 00:32:29;;;;;;;15.82;8.15;;;;;;;;;;4823671;29;20040;-60
2022/05/08 00:34:56;;;;;;;19.48;8.68;;;;;;;;;;4823765;29;20187;-60
2022/05/08 00:37:22;;;;;;;15.82;8.80;;;;;;;;;;4823404;29;20030;-61
2022/05/08 00:39:48;;;;;;;14.85;6.20;;;;;;;;;;4823469;29;20514;-61
2022/05/08 00:42:14;;;;;;;18.02;8.18;;;;;;;;;;4823705;29;20109;-61
2022/05/08 00:44:40;;;;;;;20.30;8.73;;;;;;;;;;4823487;29;20152;-62
2022/05/08 00:47:06;;;;;;;16.35;7.63;;;;;;;;;;4823743;29;20030;-61
2022/05/08 00:49:32;;;;;;;17.13;6.85;;;;;;;;;;4823622;29;20045;-61
2022/05/08 00:51:59;;;;;;;12.10;6.50;;;;;;;;;;4823665;29;20030;-61
2022/05/08 00:54:26;;;;;;;16.80;8.57;;;;;;;;;;4823808;29;20088;-61
2022/05/08 00:56:53;;;;;;;11.80;5.93;;;;;;;;;;4823835;29;20091;-61
2022/05/08 00:59:19;;;;;;;9.55;4.90;;;;;;;;;;4823280;29;20080;-61
2022/05/08 01:01:45;;;;;;;13.52;6.40;;;;;;;;;;4823533;29;20038;-62
2022/05/08 01:04:12;;;;;;;12.65;5.43;;;;;;;;;;4823356;29;20408;-61
2022/05/08 01:06:38;;;;;;;20.35;8.52;;;;;;;;;;4823348;29;20031;-61
2022/05/08 01:09:04;;;;;;;15.02;7.65;;;;;;;;;;4823191;29;20618;-61
2022/05/08 01:11:30;;;;;;;15.95;8.13;;;;;;;;;;4823666;29;20034;-61
2022/05/08 01:13:56;;;;;;;17.23;6.05;;;;;;;;;;4823604;29;20403;-61
2022/05/08 01:16:22;;;;;;;21.42;9.40;;;;;;;;;;4823781;29;20069;-61
2022/05/08 01:18:49;;;;;;;18.13;7.88;;;;;;;;;;4823244;29;20042;-61
2022/05/08 01:21:16;;;;;;;17.73;8.15;;;;;;;;;;4823446;29;20125;-61
2022/05/08 01:23:43;;;;;;;18.30;8.57;;;;;;;;;;4823394;29;20472;-61
2022/05/08 01:26:09;;;;;;;15.65;7.40;;;;;;;;;;4823258;29;20106;-61
2022/05/08 01:28:35;;;;;;;18.85;7.82;;;;;;;;;;4823330;29;20126;-61
2022/05/08 01:31:01;;;;;;;15.70;8.00;;;;;;;;;;4823262;29;20038;-61
2022/05/08 01:33:28;;;;;;;16.80;7.13;;;;;;;;;;4822912;29;20793;-61
2022/05/08 01:35:56;;;;;;;17.77;7.82;;;;;;;;;;4822741;29;20034;-61
2022/05/08 01:38:22;;;;;;;14.73;6.57;;;;;;;;;;4822746;29;20026;-61
2022/05/08 01:40:50;;;;;;;14.63;6.20;;;;;;;;;;4822871;29;20039;-61
2022/05/08 01:43:16;;;;;;;16.10;7.90;;;;;;;;;;4822929;29;20030;-62
2022/05/08 01:45:43;;;;;;;17.50;7.25;;;;;;;;;;4822669;29;20499;-61
2022/05/08 01:48:25;;;;;;;13.02;6.70;;;;;;;;;;4806298;29;20030;-61
2022/05/08 01:50:52;;;;;;;11.00;5.30;;;;;;;;;;4822892;29;20034;-61
2022/05/08 01:53:19;;;;;;;11.45;5.38;;;;;;;;;;4822834;29;20022;-61
2022/05/08 01:55:47;;;;;;;13.57;6.28;;;;;;;;;;4822568;29;20387;-61
2022/05/08 01:58:13;;;;;;;13.15;5.95;;;;;;;;;;4822243;29;20034;-61
2022/05/08 02:00:39;;;;;;;10.15;5.75;;;;;;;;;;4822539;29;20057;-61
2022/05/08 02:03:05;;;;;;;13.63;5.07;;;;;;;;;;4824295;29;20022;-61
2022/05/08 02:05:32;;;;;;;8.75;4.65;;;;;;;;;;4824065;29;20038;-61
2022/05/08 02:08:01;;;;;;;10.50;4.80;;;;;;;;;;4822365;29;20050;-60
2022/05/08 02:10:27;;;;;;;11.60;4.68;;;;;;;;;;4822554;29;20042;-60
2022/05/08 02:12:53;;;;;;;10.38;4.18;;;;;;;;;;4822433;29;20187;-60
2022/05/08 02:15:19;;;;;;;10.07;4.13;;;;;;;;;;4822466;29;20443;-61
2022/05/08 02:17:45;;;;;;;13.60;5.13;;;;;;;;;;4822521;29;20053;-61
2022/05/08 02:20:11;;;;;;;11.20;4.38;;;;;;;;;;4822390;29;20042;-61
2022/05/08 02:22:37;;;;;;;8.45;4.40;;;;;;;;;;4822563;29;20041;-60
2022/05/08 02:25:04;;;;;;;10.95;4.63;;;;;;;;;;4822353;29;20032;-61
2022/05/08 02:27:38;;;;;;;14.20;4.10;;;;;;;;;;4822283;29;20045;-62
2022/05/08 02:30:07;;;;;;;9.07;3.97;;;;;;;;;;4822188;29;20078;-62
2022/05/08 02:32:33;;;;;;;7.90;3.47;;;;;;;;;;4822364;29;20086;-61
2022/05/08 02:34:59;;;;;;;9.10;3.85;;;;;;;;;;4822128;29;20045;-61
2022/05/08 02:37:27;;;;;;;7.50;3.63;;;;;;;;;;4822342;29;20047;-61
2022/05/08 02:39:53;;;;;;;8.55;3.85;;;;;;;;;;4822121;29;20038;-61
2022/05/08 02:42:19;;;;;;;9.85;4.40;;;;;;;;;;4822345;29;20034;-61
2022/05/08 02:44:45;;;;;;;7.63;4.13;;;;;;;;;;4822083;29;20071;-61
2022/05/08 02:47:11;;;;;;;11.45;4.07;;;;;;;;;;4825695;29;20030;-62
2022/05/08 02:49:37;;;;;;;10.73;3.70;;;;;;;;;;4825678;29;20065;-61
2022/05/08 02:52:03;;;;;;;9.27;4.80;;;;;;;;;;4825762;29;20026;-61
2022/05/08 02:54:29;;;;;;;8.23;4.03;;;;;;;;;;4825880;29;20033;-61
2022/05/08 02:59:40;;;;;;;9.68;4.32;;;;;;;;;;4825807;29;20114;-61
2022/05/08 03:02:07;;;;;;;9.77;3.65;;;;;;;;;;4824931;29;20049;-61
2022/05/08 03:04:33;;;;;;;8.13;3.80;;;;;;;;;;4825747;29;20038;-61
2022/05/08 03:07:02;;;;;;;8.48;3.38;;;;;;;;;;4825245;29;20447;-61
2022/05/08 03:09:28;;;;;;;11.48;4.28;;;;;;;;;;4824959;29;20058;-61
2022/05/08 03:11:54;;;;;;;6.68;3.40;;;;;;;;;;4825292;29;20034;-61
2022/05/08 03:14:20;;;;;;;18.40;4.57;;;;;;;;;;4825238;29;20030;-61
2022/05/08 03:16:47;;;;;;;16.15;5.22;;;;;;;;;;4824894;29;20033;-61
2022/05/08 03:19:13;;;;;;;9.32;3.92;;;;;;;;;;4824945;29;20511;-60
2022/05/08 03:21:40;;;;;;;9.05;3.65;;;;;;;;;;4824960;29;20113;-60
2022/05/08 03:24:07;;;;;;;10.52;3.95;;;;;;;;;;4824623;29;20094;-60
2022/05/08 03:26:34;;;;;;;10.15;4.18;;;;;;;;;;4824915;29;20038;-60
2022/05/08 03:29:00;;;;;;;7.90;3.63;;;;;;;;;;4824942;29;20426;-60
2022/05/08 03:31:26;;;;;;;9.50;3.97;;;;;;;;;;4824583;29;20042;-60
2022/05/08 03:33:52;;;;;;;9.32;3.72;;;;;;;;;;4807937;29;20045;-61
2022/05/08 03:36:18;;;;;;;10.40;4.57;;;;;;;;;;4824924;29;20034;-60
2022/05/08 03:38:45;;;;;;;13.82;4.50;;;;;;;;;;4824748;29;20484;-60
2022/05/08 03:41:15;;;;;;;7.72;3.63;;;;;;;;;;4825001;29;20043;-60
2022/05/08 03:43:42;;;;;;;9.02;4.18;;;;;;;;;;4824889;29;20034;-60
2022/05/08 03:46:08;;;;;;;8.98;4.10;;;;;;;;;;4824347;29;20033;-60
2022/05/08 03:48:36;;;;;;;8.85;3.67;;;;;;;;;;4824736;29;20232;-60
2022/05/08 03:51:02;;;;;;;11.45;4.30;;;;;;;;;;4824741;29;20848;-60
2022/05/08 03:53:28;;;;;;;9.63;3.92;;;;;;;;;;4824621;29;20030;-60
2022/05/08 03:55:54;;;;;;;9.38;3.97;;;;;;;;;;4824687;29;20035;-60
2022/05/08 03:58:20;;;;;;;15.77;5.47;;;;;;;;;;4823831;29;20029;-60
2022/05/08 04:00:46;;;;;;;8.35;3.55;;;;;;;;;;4824245;29;20043;-60
2022/05/08 04:03:12;;;;;;;11.63;4.65;;;;;;;;;;4824587;29;20496;-60
2022/05/08 04:05:38;;;;;;;5.82;3.70;;;;;;;;;;4824396;29;20034;-61
2022/05/08 04:08:04;;;;;;;7.45;3.70;;;;;;;;;;4824135;29;20102;-60
2022/05/08 04:10:32;;;;;;;9.43;4.05;;;;;;;;;;4824489;29;20119;-61
2022/05/08 04:12:58;;;;;;;9.75;3.97;;;;;;;;;;4824503;29;20026;-61
2022/05/08 04:18:09;;;;;;;9.13;4.15;;;;;;;;;;4824394;29;20057;-61
2022/05/08 04:20:35;;;;;;;9.52;3.92;;;;;;;;;;4824380;29;20395;-61
2022/05/08 04:25:46;;;;;;;9.35;3.92;;;;;;;;;;4824315;29;20057;-60
2022/05/08 04:28:13;;;;;;;8.95;4.15;;;;;;;;;;4823636;29;20117;-61
2022/05/08 04:30:39;;;;;;;9.35;4.22;;;;;;;;;;4823529;29;20110;-61
2022/05/08 04:33:05;;;;;;;9.88;4.25;;;;;;;;;;4823996;29;20035;-61
2022/05/08 04:35:31;;;;;;;10.88;3.95;;;;;;;;;;4823835;29;20038;-61
2022/05/08 04:37:57;;;;;;;6.68;4.15;;;;;;;;;;4823659;29;20050;-61
2022/05/08 04:40:24;;;;;;;9.05;4.43;;;;;;;;;;4823862;29;20050;-61
2022/05/08 04:42:50;;;;;;;8.43;4.22;;;;;;;;;;4823740;29;20038;-60
2022/05/08 04:45:16;;;;;;;7.22;4.43;;;;;;;;;;4823567;29;20042;-60
2022/05/08 04:47:42;;;;;;;8.05;4.00;;;;;;;;;;4823606;29;20042;-60
2022/05/08 04:50:08;;;;;;;8.55;3.80;;;;;;;;;;4823602;29;20495;-60
2022/05/08 04:52:34;;;;;;;7.00;3.67;;;;;;;;;;4823674;29;20494;-60
2022/05/08 04:55:03;;;;;;;9.95;3.60;;;;;;;;;;4823619;29;20121;-61
2022/05/08 04:57:30;;;;;;;8.70;3.70;;;;;;;;;;4823428;29;20027;-61
2022/05/08 04:59:56;;;;;;;8.18;3.80;;;;;;;;;;4823710;29;20050;-62
2022/05/08 05:02:22;;;;;;;6.70;3.35;;;;;;;;;;4823416;29;20043;-61
2022/05/08 05:04:48;;;;;;;10.82;3.78;;;;;;;;;;4823373;29;20038;-61
2022/05/08 05:07:14;;;;;;;8.05;3.80;;;;;;;;;;4823521;29;20079;-62
2022/05/08 05:09:40;;;;;;;7.75;3.30;;;;;;;;;;4822248;29;20051;-61
2022/05/08 05:12:06;;;;;;;6.22;3.50;;;;;;;;;;4823302;29;20484;-61
2022/05/08 05:14:32;;;;;;;8.15;3.80;;;;;;;;;;4823318;29;20042;-61
2022/05/08 05:17:00;;;;;;;8.63;3.75;;;;;;;;;;4823315;29;20379;-62
2022/05/08 05:19:26;;;;;;;6.63;3.17;;;;;;;;;;4823408;29;20467;-62
2022/05/08 05:21:52;;;;;;;8.18;3.38;;;;;;;;;;4823233;29;20482;-62
2022/05/08 05:24:18;;;;;;;8.30;3.40;;;;;;;;;;4823369;29;20395;-60
2022/05/08 05:26:44;;;;;;;6.80;3.38;;;;;;;;;;4823233;29;20061;-62
2022/05/08 05:29:10;;;;;;;6.88;3.00;;;;;;;;;;4823262;29;20031;-60
2022/05/08 05:31:36;;;;;;;12.73;3.45;;;;;;;;;;4823130;29;20034;-60
2022/05/08 05:34:02;;;;;;;8.63;2.90;;;;;;;;;;4823171;29;20034;-60
2022/05/08 05:36:28;;;;;;;6.85;3.28;;;;;;;;;;4822880;29;20030;-60
2022/05/08 05:38:54;;;;;;;6.10;3.33;;;;;;;;;;4822752;29;20038;-60
2022/05/08 05:41:21;;;;;;;7.35;3.20;;;;;;;;;;4823029;29;20038;-60
2022/05/08 05:49:30;;;;;;;8.10;3.40;;;;;;;;;;4804610;29;20042;-60
2022/05/08 05:51:56;;;;;;;8.52;3.60;;;;;;;;;;4804572;29;20031;-59
2022/05/08 05:54:23;;;;;;;6.80;3.03;;;;;;;;;;4804725;29;20078;-60
2022/05/08 05:56:49;;;;;;;8.57;3.22;;;;;;;;;;4804451;29;20054;-60
2022/05/08 05:59:15;;;;;;;8.43;3.38;;;;;;;;;;4804096;29;20046;-62
2022/05/08 06:01:42;;;;;;;7.80;3.22;;;;;;;;;;4804292;29;20057;-60
2022/05/08 06:04:08;;;;;;;7.53;2.97;;;;;;;;;;4804309;29;20035;-60
2022/05/08 06:06:34;;;;;;;7.60;3.40;;;;;;;;;;4810823;29;20137;-59
2022/05/08 06:09:00;;;;;;;7.40;2.83;;;;;;;;;;4808061;29;20506;-61
2022/05/08 06:11:26;;;;;;;8.43;3.05;;;;;;;;;;4811760;29;20041;-61
2022/05/08 06:13:52;;;;;;;6.53;3.00;;;;;;;;;;4811757;29;20106;-58
2022/05/08 06:16:18;;;;;;;12.02;3.15;;;;;;;;;;4812932;29;20061;-60
2022/05/08 06:18:44;;;;;;;8.20;3.33;;;;;;;;;;4811247;29;20058;-60
2022/05/08 06:21:11;;;;;;;11.25;3.38;;;;;;;;;;4811871;29;20022;-60
2022/05/08 06:23:37;;;;;;;5.97;3.03;;;;;;;;;;4812774;29;20558;-59
2022/05/08 06:26:03;;;;;;;12.93;3.53;;;;;;;;;;4811437;29;20110;-57
2022/05/08 06:28:30;;;;;;;6.38;2.83;;;;;;;;;;4811720;29;20030;-61
2022/05/08 06:30:56;;;;;;;6.80;3.15;;;;;;;;;;4808755;29;20054;-61
2022/05/08 06:33:22;;;;;;;9.90;2.97;;;;;;;;;;4816504;29;20046;-61
2022/05/08 06:35:48;;;;;;;6.05;2.92;;;;;;;;;;4803173;29;20039;-66
2022/05/08 06:38:14;;;;;;;5.47;2.72;;;;;;;;;;4806105;29;20106;-60
2022/05/08 06:40:41;;;;;;;5.72;2.83;;;;;;;;;;4808233;29;20403;-59
2022/05/08 06:43:07;;;;;;;9.48;2.70;;;;;;;;;;4818939;29;20432;-61
2022/05/08 06:45:33;;;;;;;9.25;2.95;;;;;;;;;;4821930;29;20154;-59
2022/05/08 06:48:00;;;;;;;8.10;3.08;;;;;;;;;;4821800;29;20479;-63
2022/05/08 06:50:26;;;;;;;6.57;2.70;;;;;;;;;;4822108;29;20030;-60
2022/05/08 06:52:52;;;;;;;10.00;2.67;;;;;;;;;;4822215;29;20026;-62
2022/05/08 06:55:19;;;;;;;7.22;2.67;;;;;;;;;;4816112;29;20054;-62
2022/05/08 06:57:45;;;;;;;8.07;3.03;;;;;;;;;;4810634;29;20105;-61
2022/05/08 07:02:56;;;;;;;7.30;2.95;;;;;;;;;;4811077;29;20046;-62
2022/05/08 07:05:22;;;;;;;6.10;2.80;;;;;;;;;;4794104;29;20503;-60
2022/05/08 07:07:48;;;;;;;7.65;2.80;;;;;;;;;;4812191;29;20809;-62
2022/05/08 07:10:14;;;;;;;5.30;2.30;;;;;;;;;;4815917;29;20031;-62
2022/05/08 07:12:40;;;;;;;7.55;2.47;;;;;;;;;;4811412;29;20019;-63
2022/05/08 07:15:07;;;;;;;7.90;2.88;;;;;;;;;;4810628;29;20027;-62
2022/05/08 07:17:33;;;;;;;8.05;3.30;;;;;;;;;;4812032;29;20043;-63
2022/05/08 07:19:59;;;;;;;10.23;2.83;;;;;;;;;;4794233;29;20981;-61
2022/05/08 07:22:25;;;;;;;6.28;2.92;;;;;;;;;;4810485;29;20070;-62
2022/05/08 07:24:51;;;;;;;7.60;2.90;;;;;;;;;;4811586;29;20123;-61
2022/05/08 07:27:17;;;;;;;4.68;2.83;;;;;;;;;;4810870;29;20042;-64
2022/05/08 07:29:44;;;;;;;5.60;2.88;;;;;;;;;;4810791;29;20407;-63
2022/05/08 07:32:10;;;;;;;5.05;2.60;;;;;;;;;;4811651;29;20621;-62
2022/05/08 07:37:21;;;;;;;8.40;2.92;;;;;;;;;;4814614;29;20160;-63
2022/05/08 07:39:48;;;;;;;7.53;2.85;;;;;;;;;;4797045;29;20436;-62
2022/05/08 07:42:14;;;;;;;5.22;2.58;;;;;;;;;;4814653;29;20034;-61
2022/05/08 07:44:40;;;;;;;5.47;2.90;;;;;;;;;;4812667;29;20038;-61
2022/05/08 07:47:06;;;;;;;6.25;3.35;;;;;;;;;;4795601;29;20028;-60
2022/05/08 07:49:32;;;;;;;9.35;2.90;;;;;;;;;;4797014;29;20034;-61
2022/05/08 07:51:58;;;;;;;7.93;2.63;;;;;;;;;;4796338;29;20472;-60
2022/05/08 07:54:25;;;;;;;6.65;2.80;;;;;;;;;;4795637;29;20039;-59
2022/05/08 07:56:51;;;;;;;8.40;3.08;;;;;;;;;;4803457;29;20035;-61
2022/05/08 07:59:18;;;;;;;6.10;2.70;;;;;;;;;;4806266;29;20045;-60
2022/05/08 08:01:44;;;;;;;8.80;3.50;;;;;;;;;;4806484;29;20062;-62
2022/05/08 08:04:10;;;;;;;7.53;2.83;;;;;;;;;;4806413;29;20027;-61
2022/05/08 08:06:36;;;;;;;6.10;2.97;;;;;;;;;;4806178;29;20038;-63
2022/05/08 08:09:04;;;;;;;5.68;2.83;;;;;;;;;;4806353;29;20035;-63
2022/05/08 08:11:30;;;;;;;5.95;2.58;;;;;;;;;;4806249;29;20027;-60
2022/05/08 08:13:57;;;;;;;10.45;2.70;;;;;;;;;;4806060;29;20396;-63
2022/05/08 08:16:23;;;;;;;6.57;2.42;;;;;;;;;;4806166;29;20118;-63
2022/05/08 08:18:49;;;;;;;10.40;2.72;;;;;;;;;;4805927;29;20027;-62
2022/05/08 08:21:16;;;;;;;6.60;2.67;;;;;;;;;;4806041;29;20567;-63
2022/05/08 08:23:43;;;;;;;6.53;2.75;;;;;;;;;;4806289;29;20035;-63
2022/05/08 08:26:10;;;;;;;6.63;2.70;;;;;;;;;;4806120;29;20034;-61
2022/05/08 08:28:36;;;;;;;7.68;2.88;;;;;;;;;;4805891;29;20110;-61
2022/05/08 08:31:03;;;;;;;7.55;3.10;;;;;;;;;;4805820;29;20365;-63
2022/05/08 08:33:30;;;;;;;6.55;2.40;;;;;;;;;;4805991;29;20476;-63
2022/05/08 08:35:56;;;;;;;6.10;2.70;;;;;;;;;;4805581;29;20027;-62
2022/05/08 08:38:22;;;;;;;7.95;3.08;;;;;;;;;;4805294;29;20038;-61
2022/05/08 08:40:49;;;;;;;5.78;2.80;;;;;;;;;;4805546;29;20134;-61
2022/05/08 08:43:19;;;;;;;7.20;2.72;;;;;;;;;;4805154;29;20056;-62
2022/05/08 08:48:32;;;;;;;7.55;3.03;;;;;;;;;;4805651;29;20100;-60
2022/05/08 08:50:59;;;;;;;7.13;3.13;;;;;;;;;;4805459;29;20539;-60
2022/05/08 08:53:26;;;;;;;11.40;3.30;;;;;;;;;;4805031;29;20447;-59
2022/05/08 08:55:53;;;;;;;6.68;2.97;;;;;;;;;;4804514;29;20559;-60
2022/05/08 08:58:19;;;;;;;9.20;3.60;;;;;;;;;;4805104;29;20045;-58
2022/05/08 09:00:52;;;;;;;6.28;3.00;;;;;;;;;;4797943;29;20039;-62
2022/05/08 09:03:25;;;;;;;8.07;3.40;;;;;;;;;;4797481;29;20554;-61
2022/05/08 09:05:55;;;;;;;6.78;3.53;;;;;;;;;;4804163;29;20039;-60
2022/05/08 09:08:27;;;;;;;6.85;3.17;;;;;;;;;;4775033;29;20476;-60
2022/05/08 09:10:54;;;;;;;4.85;3.10;;;;;;;;;;4797802;29;20074;-62
2022/05/08 09:13:22;;;;;;;7.43;3.03;;;;;;;;;;4797050;29;20472;-60
2022/05/08 09:15:53;;;;;;;8.05;2.95;;;;;;;;;;4790237;29;20089;-62
2022/05/08 09:18:19;;;;;;;7.10;3.15;;;;;;;;;;4800873;29;20035;-61
2022/05/08 09:20:51;;;;;;;9.48;3.20;;;;;;;;;;4780849;29;20039;-60
2022/05/08 09:23:20;;;;;;;6.38;2.72;;;;;;;;;;4794283;29;20055;-60
2022/05/08 09:26:00;;;;;;;5.82;2.90;;;;;;;;;;4799633;29;20031;-61
2022/05/08 09:28:26;;;;;;;5.68;2.85;;;;;;;;;;4776077;29;20407;-62
2022/05/08 09:30:59;;;;;;;5.63;2.70;;;;;;;;;;4804454;29;20034;-61
2022/05/08 09:33:26;;;;;;;6.13;2.90;;;;;;;;;;4804369;29;20083;-60
2022/05/08 09:35:52;;;;;;;7.35;3.08;;;;;;;;;;4804214;29;20034;-60
2022/05/08 09:38:18;;;;;;;8.10;3.10;;;;;;;;;;4796986;29;20376;-60
2022/05/08 09:40:47;;;;;;;9.10;3.67;;;;;;;;;;4797180;29;20047;-64
2022/05/08 09:43:29;;;;;;;7.72;3.25;;;;;;;;;;4796379;29;20091;-64
2022/05/08 09:46:02;;;;;;;9.43;3.60;;;;;;;;;;4800450;29;20078;-61
2022/05/08 09:48:28;;;;;;;11.38;3.50;;;;;;;;;;4822080;29;20455;-63
2022/05/08 09:50:59;;;;;;;8.57;3.50;;;;;;;;;;4813337;29;20023;-60
2022/05/08 09:53:25;;;;;;;11.55;3.10;;;;;;;;;;4811492;29;20045;-59
2022/05/08 09:55:55;;;;;;;7.45;2.90;;;;;;;;;;4811428;29;20034;-63
2022/05/08 09:58:21;;;;;;;6.40;3.20;;;;;;;;;;4810699;29;20046;-59
2022/05/08 10:00:51;;;;;;;9.05;3.40;;;;;;;;;;4811084;29;20410;-60
2022/05/08 10:03:18;;;;;;;8.93;3.15;;;;;;;;;;4812365;29;20041;-62
2022/05/08 10:05:44;;;;;;;6.47;2.80;;;;;;;;;;4808304;29;20037;-61
2022/05/08 10:08:12;;;;;;;9.95;2.80;;;;;;;;;;4804132;29;20149;-60
2022/05/08 10:14:00;;;;;;;8.55;2.95;;;;;;;;;;4803630;29;20467;-60
2022/05/08 10:16:45;;;;;;;6.22;2.70;;;;;;;;;;4803889;29;20201;-63
2022/05/08 10:19:17;;;;;;;5.35;2.90;;;;;;;;;;4803623;29;20077;-64
2022/05/08 10:21:43;;;;;;;;;;;;;;;;;;4804175;29;20148;-63
2022/05/08 10:24:47;;;;;;;6.57;3.08;;;;;;;;;;4803975;29;19916;-60
2022/05/08 10:27:22;;;;;;;6.35;3.00;;;;;;;;;;4765124;30;20039;-60
2022/05/08 10:29:52;;;;;;;5.47;2.70;;;;;;;;;;4765399;30;20052;-62
2022/05/08 10:32:33;;;;;;;11.32;3.28;;;;;;;;;;4765897;30;20031;-61
2022/05/08 10:35:08;;;;;;;6.82;3.03;;;;;;;;;;4765692;30;20082;-61
2022/05/08 10:37:34;;;;;;;5.93;2.72;;;;;;;;;;4756871;30;20032;-60
2022/05/08 10:40:01;;;;;;;8.95;3.00;;;;;;;;;;4738863;30;20048;-61
2022/05/08 10:44:57;;;;;;;9.25;3.38;;;;;;;;;;4754425;30;20138;-62
2022/05/08 10:47:40;;;;;;;7.95;2.88;;;;;;;;;;4761254;30;20148;-61
2022/05/08 10:50:10;;;;;;;10.23;3.00;;;;;;;;;;4761997;30;20478;-62
2022/05/08 10:52:43;;;;;;;9.07;2.95;;;;;;;;;;4755465;30;20032;-59
2022/05/08 10:55:12;;;;;;;6.25;3.17;;;;;;;;;;4755500;30;20040;-60
2022/05/08 10:57:39;;;;;;;6.65;2.70;;;;;;;;;;4755259;30;20028;-61
2022/05/08 11:00:06;;;;;;;6.28;3.38;;;;;;;;;;4758661;29;20147;-60
2022/05/08 11:02:42;;;;;;;12.15;5.85;;;;;;;;;;4803105;29;20325;-61
2022/05/08 11:05:09;;;;;;;8.27;4.25;;;;;;;;;;4802791;29;20229;-61
2022/05/08 11:07:35;;;;;;;6.43;3.33;;;;;;;;;;4795530;29;20056;-62
2022/05/08 11:10:01;;;;;;;9.30;5.53;;;;;;;;;;4817410;29;20083;-61
2022/05/08 11:12:28;;;;;;;10.70;5.95;;;;;;;;;;4820609;29;20032;-62
2022/05/08 11:15:07;;;;;;;8.18;3.70;;;;;;;;;;4809681;29;20045;-62
2022/05/08 11:17:33;;;;;;;6.18;3.03;;;;;;;;;;4806768;29;20031;-64
2022/05/08 11:19:59;;;;;;;6.80;2.95;;;;;;;;;;4806580;29;20137;-64
2022/05/08 11:22:25;;;;;;;8.27;3.40;;;;;;;;;;4807162;29;20421;-60
2022/05/08 11:24:51;;;;;;;7.15;2.95;;;;;;;;;;4807114;29;20027;-65
2022/05/08 11:27:17;;;;;;;8.02;2.83;;;;;;;;;;4809116;29;20046;-60
2022/05/08 11:29:50;;;;;;;6.20;3.20;;;;;;;;;;4825196;29;20068;-64
2022/05/08 11:37:59;;;;;;;7.93;2.88;;;;;;;;;;4825017;29;20057;-61
2022/05/08 11:40:26;;;;;;;6.38;2.95;;;;;;;;;;4824827;29;20057;-62
2022/05/08 11:42:52;;;;;;;5.82;3.42;;;;;;;;;;4824791;29;20033;-61
2022/05/08 11:45:18;;;;;;;6.07;2.70;;;;;;;;;;4813246;29;20059;-63
2022/05/08 11:47:51;;;;;;;7.55;3.00;;;;;;;;;;4798417;29;20031;-60
2022/05/08 11:50:17;;;;;;;6.13;3.03;;;;;;;;;;4801465;29;20443;-60
2022/05/08 11:52:44;;;;;;;8.68;3.42;;;;;;;;;;4803024;29;20027;-62
2022/05/08 11:55:10;;;;;;;7.88;2.90;;;;;;;;;;4802964;29;20055;-61
2022/05/08 11:57:45;;;;;;;7.70;3.40;;;;;;;;;;4803041;29;20027;-61
2022/05/08 12:00:13;;;;;;;9.45;3.47;;;;;;;;;;4790748;29;20038;-62
2022/05/08 12:02:40;;;;;;;5.68;3.17;;;;;;;;;;4792885;29;20027;-62
2022/05/08 12:05:07;;;;;;;9.63;3.30;;;;;;;;;;4796994;29;20030;-60
2022/05/08 12:07:40;;;;;;;6.43;3.10;;;;;;;;;;4797601;29;20022;-61
2022/05/08 12:10:07;;;;;;;5.43;3.08;;;;;;;;;;4796832;29;20058;-63
2022/05/08 12:12:35;;;;;;;9.00;3.40;;;;;;;;;;4789710;29;20042;-60
2022/05/08 12:15:04;;;;;;;6.70;3.22;;;;;;;;;;4789602;29;20472;-60
2022/05/08 12:17:30;;;;;;;8.50;3.47;;;;;;;;;;4803320;29;20059;-61
2022/05/08 12:19:57;;;;;;;6.57;3.72;;;;;;;;;;4797571;29;20419;-59
2022/05/08 12:22:24;;;;;;;7.85;3.60;;;;;;;;;;4795272;29;20034;-63
2022/05/08 12:24:54;;;;;;;16.05;5.03;;;;;;;;;;4795593;29;20034;-60
2022/05/08 12:27:21;;;;;;;27.50;12.85;;;;;;;;;;4795198;29;20062;-64
2022/05/08 12:29:47;;;;;;;33.65;14.15;;;;;;;;;;4791674;29;20164;-60
2022/05/08 12:32:14;;;;;;;7.43;3.25;;;;;;;;;;4794106;29;20066;-64
2022/05/08 12:34:41;;;;;;;10.95;4.00;;;;;;;;;;4796204;29;20362;-62
2022/05/08 12:37:11;;;;;;;9.52;3.95;;;;;;;;;;4794066;29;20377;-58
2022/05/08 12:39:38;;;;;;;8.45;4.63;;;;;;;;;;4795558;29;20404;-64
2022/05/08 12:42:04;;;;;;;5.90;2.85;;;;;;;;;;4795015;29;20070;-61
2022/05/08 12:44:30;;;;;;;12.23;5.27;;;;;;;;;;4754591;29;1163669;-62
2022/05/08 12:46:57;;;;;;;10.50;4.35;;;;;;;;;;4794016;29;20116;-60
2022/05/08 12:49:24;;;;;;;10.02;3.45;;;;;;;;;;4795576;29;20045;-62
2022/05/08 12:51:50;;;;;;;5.93;2.90;;;;;;;;;;4787350;29;20088;-63
2022/05/08 12:54:16;;;;;;;9.75;3.25;;;;;;;;;;4794212;29;20038;-64
2022/05/08 12:56:44;;;;;;;7.43;3.03;;;;;;;;;;4795428;29;20038;-61
2022/05/08 13:01:55;;;;;;;7.97;3.30;;;;;;;;;;4793042;29;20047;-62
2022/05/08 13:04:22;;;;;;;5.80;2.90;;;;;;;;;;4795112;29;20035;-60
2022/05/08 13:06:48;;;;;;;7.22;3.15;;;;;;;;;;4792678;29;20046;-61
2022/05/08 13:09:14;;;;;;;10.00;3.75;;;;;;;;;;4785828;29;20059;-60
2022/05/08 13:11:41;;;;;;;8.07;3.20;;;;;;;;;;4786016;29;20036;-66
2022/05/08 13:14:07;;;;;;;8.23;3.10;;;;;;;;;;4803639;29;20450;-60
2022/05/08 13:16:34;;;;;;;9.40;3.58;;;;;;;;;;4803545;29;20073;-59
2022/05/08 13:19:00;;;;;;;10.05;3.20;;;;;;;;;;4803268;29;20095;-64
2022/05/08 13:21:28;;;;;;;7.65;3.38;;;;;;;;;;4790050;29;20556;-58
2022/05/08 13:23:54;;;;;;;6.93;3.25;;;;;;;;;;4788971;29;20023;-60
2022/05/08 13:26:20;;;;;;;5.22;2.85;;;;;;;;;;4789726;29;20039;-62
2022/05/08 13:28:46;;;;;;;5.00;2.47;;;;;;;;;;4787201;29;20102;-59
2022/05/08 13:31:12;;;;;;;5.95;3.03;;;;;;;;;;4788667;29;20471;-60
2022/05/08 13:33:39;;;;;;;6.63;2.95;;;;;;;;;;4789232;29;20035;-59
2022/05/08 13:36:06;;;;;;;5.95;3.17;;;;;;;;;;4788759;29;20050;-63
2022/05/08 13:38:32;;;;;;;6.75;3.33;;;;;;;;;;4789011;29;20405;-59
2022/05/08 13:40:59;;;;;;;5.90;2.90;;;;;;;;;;4789010;29;20407;-60
2022/05/08 13:43:25;;;;;;;7.25;3.30;;;;;;;;;;4788836;29;20079;-59
2022/05/08 13:45:52;;;;;;;8.13;3.35;;;;;;;;;;4789032;29;20077;-58
2022/05/08 13:48:19;;;;;;;11.70;3.72;;;;;;;;;;4792493;29;20057;-60
2022/05/08 13:50:45;;;;;;;7.78;3.63;;;;;;;;;;4789348;29;20051;-64
2022/05/08 13:53:12;;;;;;;5.55;2.97;;;;;;;;;;4790400;29;20023;-59
2022/05/08 13:55:43;;;;;;;6.72;3.33;;;;;;;;;;4798161;29;20091;-65
2022/05/08 13:58:10;;;;;;;8.00;3.20;;;;;;;;;;4804604;29;20023;-60
2022/05/08 14:00:37;;;;;;;7.18;3.08;;;;;;;;;;4804408;29;20077;-63
2022/05/08 14:03:04;;;;;;;7.25;2.78;;;;;;;;;;4804417;29;20082;-59
2022/05/08 14:05:30;;;;;;;8.48;3.13;;;;;;;;;;4795891;29;20540;-66
2022/05/08 14:07:56;;;;;;;6.72;2.75;;;;;;;;;;4786114;30;20046;-66
2022/05/08 14:10:23;;;;;;;8.55;3.35;;;;;;;;;;4786410;30;20119;-59
2022/05/08 14:12:49;;;;;;;7.70;2.90;;;;;;;;;;4798091;29;20041;-59
2022/05/08 14:15:15;;;;;;;7.40;3.10;;;;;;;;;;4804101;29;20160;-59
2022/05/08 14:17:42;;;;;;;4.47;2.67;;;;;;;;;;4788107;29;20035;-66
2022/05/08 14:20:10;;;;;;;6.97;2.90;;;;;;;;;;4788421;29;20504;-59
2022/05/08 14:22:36;;;;;;;6.72;2.75;;;;;;;;;;4804269;29;20049;-60
2022/05/08 14:25:03;;;;;;;6.53;2.97;;;;;;;;;;4799952;29;20477;-60
2022/05/08 14:27:29;;;;;;;10.13;3.17;;;;;;;;;;4785771;30;20023;-62
2022/05/08 14:29:56;;;;;;;8.95;3.10;;;;;;;;;;4790979;29;20114;-62
2022/05/08 14:37:52;;;;;;;5.05;2.58;;;;;;;;;;4785564;30;20041;-59
2022/05/08 14:40:19;;;;;;;5.97;2.80;;;;;;;;;;4785419;30;20086;-59
2022/05/08 14:42:45;;;;;;;7.93;2.50;;;;;;;;;;4797979;29;20433;-60
2022/05/08 14:45:11;;;;;;;5.88;2.97;;;;;;;;;;4809482;29;20081;-63
2022/05/08 14:47:38;;;;;;;8.30;2.90;;;;;;;;;;4821690;29;20050;-60
2022/05/08 14:50:04;;;;;;;8.30;2.90;;;;;;;;;;4822130;29;20064;-67
2022/05/08 14:52:31;;;;;;;8.00;2.70;;;;;;;;;;4791705;29;20449;-60
2022/05/08 14:54:57;;;;;;;5.65;3.10;;;;;;;;;;4803634;29;20410;-61
2022/05/08 14:57:23;;;;;;;8.13;3.20;;;;;;;;;;4792218;29;20380;-65
2022/05/08 14:59:49;;;;;;;6.47;2.88;;;;;;;;;;4821823;29;20576;-60
2022/05/08 15:02:15;;;;;;;6.18;2.47;;;;;;;;;;4822118;29;20026;-66
2022/05/08 15:04:41;;;;;;;5.85;2.38;;;;;;;;;;4815452;29;20078;-60
2022/05/08 15:07:07;;;;;;;6.85;2.40;;;;;;;;;;4803553;29;20042;-60
2022/05/08 15:09:33;;;;;;;7.45;2.90;;;;;;;;;;4817427;29;20034;-60
2022/05/08 15:12:02;;;;;;;4.28;2.50;;;;;;;;;;4806334;29;20718;-66
2022/05/08 15:14:28;;;;;;;4.35;2.78;;;;;;;;;;4813443;29;20575;-60
2022/05/08 15:16:54;;;;;;;6.22;2.55;;;;;;;;;;4821555;29;20403;-66
2022/05/08 15:19:20;;;;;;;4.68;2.45;;;;;;;;;;4821620;29;20046;-66
2022/05/08 15:21:46;;;;;;;7.28;2.83;;;;;;;;;;4815321;29;20050;-60